East Smethport, Pennsylvania
Current Conditions -  °F | °C
As of 8:13 AM on Wednesday 22 Oct 2014 (Local Time) from KBFD Reporting Station
Haze Haze  
Wind Chill:   Ceiling: 200
Heat Index:   Visibility: 2mi
Dew Point:   Wind: 12mph
Humidity: 93%   Direction: 20°NNE
Pressure: 30.1"   Gusts: NA
Location:  41.81°N, 78.42°W
Report Text: KBFD 221213Z AUTO 02010KT 2SM BR OVC002 05/04 A3010 RMK AO2 RAE02 P0000 T00500039
Loading
Personal Weather Stations






























Interactive Weather Map
Tropical Storm Tracking
New forecast layout! Learn more

10-Day Weather Forecast

Advertisements
Track Severe Weather on mobile